Tiempo atmosférico en la estación meteorológica de Cabrales, Asturias (458 m.)



Fecha
DESCASC
Temp. máxima en grados centígrados (hora)
DESCASC
Temp. mínima en grados centígrados (hora)
DESCASC
Temp. media en grados centígrados
DESCASC
Racha de viento máxima en m/sg (hora)
DESCASC
Velocidad máxima media en intervalos de 10 minutos(hora)
DESCASC
Precipitaciones diarias en mm
DESCASC
Precipitaciones de 00:00 a 06:00 en mm
DESCASC
Precipitaciones de 06:00 a 12:00 en mm
DESCASC
Precipitaciones de 12:00 a 18:00 en mm
DESCASC
Precipitaciones de 18:00 a 24:00 en mm
DESCASC
03-02-2018 7.5 (12:20) 0.3 (00:00) 3.9 16.11 (16:00) 13.06 (16:00) 21 0 0.4 6.8 13.8
16-02-2018 15.6 (16:00) 8.8 (00:00) 12.2 11.39 (23:00) 7.78 (22:40) 10.8 0 0 0 10.8
01-02-2018 7.3 (01:30) 1.1 (00:00) 4.2 17.78 (10:00) 12.5 (10:00) 27.4 5.8 5.2 7.2 9.2
04-02-2018 6 (15:20) -0.2 (00:00) 2.9 7.78 (18:20) 5.83 (18:20) 21.4 4.6 5.4 3.8 7.6
11-02-2018 11.6 (11:00) 3.1 (00:00) 7.4 13.06 (22:30) 9.17 (22:20) 16 0 0.2 8.6 7.2
26-01-2018 5.9 (16:40) 3.3 (00:00) 4.6 15.28 (12:00) 10.83 (12:00) 30.4 1.6 6.4 16 6.4
05-02-2018 1.8 (23:59) -0.2 (00:00) 0.8 8.33 (20:30) 3.33 (20:30) 22.2 5.6 5.8 5.4 5.4
19-02-2018 8.8 (14:00) 6.8 (00:00) 7.8 9.72 (15:00) 7.22 (15:00) 27.4 4.4 12 6.2 4.8
18-02-2018 11.1 (15:10) 2.8 (00:00) 7 7.5 (15:10) 4.72 (13:50) 2.8 0 0 0 2.8
20-02-2018 8.7 (12:00) 6.4 (00:00) 7.5 8.61 (06:50) 5.56 (05:00) 10.2 2.8 2.2 3 2.2
13-02-2018 9.5 (08:50) -1.3 (-00:0) 4.1 20.28 (09:10) 12.78 (09:10) 6 0 3.4 0.8 1.8
09-02-2018 6.2 (12:50) 0.2 (00:00) 3.2 14.17 (15:00) 8.89 (15:20) -- -- 11.2 8 1.8
02-02-2018 3.1 (02:20) 0.8 (00:00) 1.9 13.06 (00:50) 8.61 (00:40) 16.4 6 3.8 5.2 1.4
25-01-2018 10.4 (00:00) 4.1 (00:00) 7.2 16.39 (16:50) 10.28 (11:40) 9.8 0 4.6 4.2 1
17-02-2018 10.1 (13:10) 4 (00:00) 7.1 11.11 (02:00) 8.06 (01:50) 7.6 5.2 0.6 1.2 0.6
07-02-2018 5 (15:20) -0.5 (-00:0) 2.3 -- (--) -- (--) 18.6 0.4 6.4 11.2 0.6
31-01-2018 12.9 (14:30) 2 (00:00) 7.4 8.89 (22:30) 5.83 (19:10) 0.4 0 0 0 0.4
15-02-2018 18.7 (17:20) 9.8 (00:00) 14.3 7.78 (20:40) 5 (20:40) 0.4 0 0 0 0.4
10-02-2018 8.5 (14:40) 1.8 (00:00) 5.1 8.61 (16:30) 6.11 (16:30) 0.8 0.2 0.2 0 0.4
06-02-2018 2.1 (13:50) -0.5 (-00:0) 0.8 6.67 (00:20) 4.17 (06:10) 12.8 2.4 1.8 8.4 0.2
12-02-2018 4.2 (12:30) -0.4 (00:00) 1.9 10.83 (01:40) 7.22 (00:20) 7.8 2.6 1.2 4 0
22-01-2018 16.1 (13:00) 6.1 (00:00) 11.1 9.17 (12:40) 5.83 (17:40) -- 0 0 -- 0
14-02-2018 19.4 (15:50) 4.1 (00:00) 11.7 8.33 (16:00) 5 (17:50) 0.6 0.2 0.4 0 0
30-01-2018 11.4 (16:40) 3.1 (00:00) 7.2 4.44 (18:30) 3.06 (18:30) 0 0 0 0 0
29-01-2018 15.9 (16:20) 4.9 (00:00) 10.4 5.83 (14:30) 3.89 (14:30) 0 0 0 0 0
28-01-2018 12 (16:40) 0.7 (00:00) 6.3 4.72 (18:30) 3.89 (18:30) 0.2 0.2 0 0 0
27-01-2018 7.7 (17:00) 4.2 (00:00) 5.9 6.11 (05:20) 4.72 (05:20) 5.2 3 1.8 0.4 0
24-01-2018 15.4 (14:30) 6.3 (00:00) 10.8 6.94 (23:40) 5.28 (23:40) 0 0 0 0 0
23-01-2018 14.3 (14:10) 8.9 (00:00) 11.6 6.11 (16:10) 3.61 (17:10) 0 0 0 0 0
08-02-2018 6.1 (15:20) -1 (-00:0) 2.5 -- (--) -- (--) -- -- -- -- --

Gráficas

Temp. máximas Temp. mínimas Temp. medias Precipitaciones Rachas de viento máximas Velocidades máximas media en intervalos de 10 minutos

Datos horarios

Fecha y hora oficial Temperatura (ºC) Velocidad del viento (km/h) Dirección del viento Racha (km/h) Dirección de racha Precipitación (mm) Presión (hPa) Tendencia (hPa) Humedad (%)
2018-02-20 23:00:00 7 9 Noroeste 10 Noroeste 0.2 -- -- 100
2018-02-20 22:00:00 7.1 3 Oeste 11 Oeste 0 -- -- 100
2018-02-20 21:00:00 7.1 8 Oeste 10 Oeste 0 -- -- 100
2018-02-20 20:00:00 7.1 6 Sudoeste 11 Oeste 1.2 -- -- 100
2018-02-20 19:00:00 7.1 5 Noroeste 8 Noroeste 0.8 -- -- 100
2018-02-20 18:00:00 7.4 6 Oeste 14 Norte 0.8 -- -- 100
2018-02-20 17:00:00 7.7 5 Sudoeste 15 Oeste 0.4 -- -- 100
2018-02-20 16:00:00 7.3 2 Noroeste 9 Norte 1 -- -- 100
2018-02-20 15:00:00 7.4 4 Noroeste 16 Norte 0.8 -- -- 100
2018-02-20 14:00:00 8 8 Norte 22 Noroeste 0 -- -- 97
2018-02-20 13:00:00 8.6 10 Noroeste 14 Oeste 0 -- -- 99
2018-02-20 12:00:00 8.7 4 Este 15 Oeste 0 -- -- 100
2018-02-20 11:00:00 7.1 7 Oeste 20 Oeste 1 -- -- 100
2018-02-20 10:00:00 6.8 2 Nordeste 15 Sudoeste 0 -- -- 100
2018-02-20 09:00:00 6.5 10 Oeste 22 Oeste 0 -- -- 99
2018-02-20 08:00:00 6.4 12 Oeste 19 Oeste 0.2 -- -- 98
2018-02-20 07:00:00 6.5 19 Oeste 31 Oeste 1 -- -- 98
2018-02-20 06:00:00 6.9 10 Oeste 28 Oeste 0 -- -- 99
2018-02-20 05:00:00 6.9 20 Oeste 27 Oeste 1.2 -- -- 100
2018-02-20 04:00:00 7.1 15 Oeste 23 Noroeste 0.2 -- -- 100
2018-02-20 03:00:00 7.1 19 Noroeste 27 Noroeste 0.8 -- -- 100
2018-02-20 02:00:00 7.2 11 Oeste 19 Oeste 0.2 -- -- 100
2018-02-20 01:00:00 7 8 Noroeste 14 Oeste 0.4 -- -- 100
2018-02-20 00:00:00 7 8 Noroeste 15 Oeste 0.2 -- -- 100
2018-02-19 23:00:00 7 7 Noroeste 17 Oeste 0.6 -- -- 100
2018-02-19 22:00:00 7 7 Oeste 18 Sudoeste 0.8 -- -- 100
2018-02-19 21:00:00 7.2 12 Oeste 26 Oeste 1 -- -- 100
2018-02-19 20:00:00 7.4 17 Oeste 26 Oeste 0.6 -- -- 100
2018-02-19 19:00:00 7.7 12 Noroeste 19 Noroeste 1.6 -- -- 100
2018-02-19 18:00:00 7.9 13 Noroeste 18 Oeste 0.6 -- -- 100
2018-02-19 17:00:00 8.2 11 Noroeste 23 Noroeste 1.6 -- -- 100
2018-02-19 16:00:00 8.4 12 Noroeste 29 Oeste 2 -- -- 100
2018-02-19 15:00:00 8.5 26 Oeste 35 Oeste 1 -- -- 100
2018-02-19 14:00:00 8.8 10 Noroeste 18 Noroeste 0.8 -- -- 100
2018-02-19 13:00:00 8.5 9 Norte 24 Noroeste 0.2 -- -- 100
2018-02-19 12:00:00 8 9 Noroeste 14 Noroeste 0.8 -- -- 100
2018-02-19 11:00:00 7.6 6 Noroeste 13 Noroeste 1.8 -- -- 100
2018-02-19 10:00:00 7.2 9 Noroeste 15 Noroeste 3.2 -- -- 100
2018-02-19 09:00:00 7 5 Noroeste 12 Noroeste 2.6 -- -- 100
2018-02-19 08:00:00 6.9 3 Noroeste 12 Norte 2.2 -- -- 100
2018-02-19 07:00:00 6.9 4 Norte 10 Noroeste 1.4 -- -- 100
2018-02-19 06:00:00 6.9 7 Noroeste 13 Noroeste 1.4 -- -- 100
2018-02-19 05:00:00 6.9 3 Norte 8 Oeste 1 -- -- 100
2018-02-19 04:00:00 6.8 3 Oeste 10 Noroeste 0.8 -- -- 100
2018-02-19 03:00:00 6.9 6 Norte 12 Norte 0.4 -- -- 100
2018-02-19 02:00:00 7 6 Oeste 13 Noroeste 0.6 -- -- 99
2018-02-19 01:00:00 6.9 6 Norte 20 Oeste 0.2 -- -- 99
2018-02-19 00:00:00 7.1 12 Oeste 25 Oeste 1 -- -- 99
2018-02-18 23:00:00 7.4 4 Noroeste 12 Norte 0 -- -- 96
2018-02-18 22:00:00 7.3 8 Norte 17 Noroeste 0 -- -- 97
2018-02-18 21:00:00 7.6 15 Noroeste 24 Oeste 0.8 -- -- 99
2018-02-18 20:00:00 7.7 15 Noroeste 22 Oeste 0.8 -- -- 99
2018-02-18 19:00:00 8.1 14 Noroeste 23 Oeste 0.2 -- -- 95
2018-02-18 18:00:00 9.3 13 Noroeste 21 Noroeste 0 -- -- 85
2018-02-18 17:00:00 10.3 15 Noroeste 24 Noroeste 0 -- -- 79
2018-02-18 16:00:00 10.8 16 Noroeste 27 Norte 0 -- -- 75
2018-02-18 15:00:00 10.9 15 Norte 23 Noroeste 0 -- -- 74
2018-02-18 14:00:00 10.4 15 Noroeste 25 Noroeste 0 -- -- 74
2018-02-18 13:00:00 10.1 8 Noroeste 14 Noroeste 0 -- -- 76
2018-02-18 12:00:00 8.8 2 Norte 5 Sudoeste 0 -- -- 84
2018-02-18 11:00:00 6.4 0 Calma 5 Oeste 0 -- -- 77
2018-02-18 10:00:00 5 2 Sudoeste 4 Sudoeste 0 -- -- 80
2018-02-18 09:00:00 4.2 4 Sudoeste 9 Sudeste 0 -- -- 78
2018-02-18 08:00:00 4.3 4 Sudeste 6 Este 0 -- -- 77
2018-02-18 07:00:00 3.8 2 Sudoeste 4 Sudoeste 0 -- -- 80
2018-02-18 06:00:00 3.4 0 Calma 9 Sudoeste 0 -- -- 85
2018-02-18 05:00:00 3 0 Calma 9 Este 0 -- -- 90
2018-02-18 04:00:00 3.5 0 Calma 3 Nordeste 0 -- -- 89
2018-02-18 03:00:00 3.8 2 Nordeste 3 Nordeste 0 -- -- 86
2018-02-18 02:00:00 3.7 2 Oeste 3 Oeste 0 -- -- 89
2018-02-18 01:00:00 3.9 0 Calma 4 Oeste 0 -- -- 90
2018-02-18 00:00:00 4.2 3 Oeste 4 Oeste 0 -- -- 91
2018-02-17 23:00:00 4.3 3 Oeste 6 Oeste 0 -- -- 94
2018-02-17 22:00:00 4.9 0 Calma 4 Oeste 0 -- -- 97
2018-02-17 21:00:00 5.1 0 Calma 6 Nordeste 0 -- -- 94
2018-02-17 20:00:00 5.5 0 Calma 3 Sudoeste 0 -- -- 93
2018-02-17 19:00:00 6 0 Calma 16 Nordeste 0.6 -- -- 89
2018-02-17 18:00:00 6.4 15 Nordeste 24 Nordeste 0.2 -- -- 92
2018-02-17 17:00:00 7 5 Sudoeste 23 Sudoeste 0.2 -- -- 89
2018-02-17 16:00:00 8.3 5 Este 21 Nordeste 0.4 -- -- 90
2018-02-17 15:00:00 9.9 8 Oeste 17 Oeste 0 -- -- 73
2018-02-17 14:00:00 6.9 14 Oeste 32 Noroeste 0.4 -- -- 88
2018-02-17 13:00:00 9.7 10 Oeste 22 Sudoeste 0 -- -- 77
2018-02-17 12:00:00 7.3 7 Oeste 30 Oeste 0 -- -- 91
2018-02-17 11:00:00 6.5 19 Noroeste 26 Noroeste 0.4 -- -- 99
2018-02-17 10:00:00 6.4 5 Noroeste 20 Norte 0.2 -- -- 98
2018-02-17 09:00:00 6.3 10 Noroeste 15 Noroeste 0 -- -- 95
2018-02-17 08:00:00 6.2 8 Noroeste 21 Noroeste 0 -- -- 94
2018-02-17 07:00:00 6.2 12 Noroeste 23 Noroeste 0 -- -- 99
2018-02-17 06:00:00 6.2 11 Noroeste 37 Oeste 0 -- -- 100
2018-02-17 05:00:00 6.5 24 Oeste 35 Oeste 0.2 -- -- 100
2018-02-17 04:00:00 6.8 14 Noroeste 23 Noroeste 0.4 -- -- 100
2018-02-17 03:00:00 7.2 19 Noroeste 32 Oeste 0.2 -- -- 100
2018-02-17 02:00:00 7.4 28 Oeste 40 Oeste 2.6 -- -- 100
2018-02-17 01:00:00 8.3 18 Noroeste 34 Noroeste 1.8 -- -- 100
2018-02-17 00:00:00 8.9 19 Noroeste 32 Norte 3.4 -- -- 100
2018-02-16 23:00:00 9.7 25 Noroeste 41 Noroeste 5.2 -- -- 100
2018-02-16 22:00:00 10.7 2 Nordeste 8 Este 1.4 -- -- 100
2018-02-16 21:00:00 10.8 8 Oeste 13 Oeste 0.2 -- -- 100
2018-02-16 20:00:00 11 7 Oeste 19 Oeste 0.6 -- -- 98
2018-02-16 19:00:00 11.5 14 Oeste 25 Oeste 0 -- -- 95
2018-02-16 18:00:00 12.4 14 Oeste 22 Oeste 0 -- -- 90
2018-02-16 17:00:00 14.5 7 Oeste 12 Oeste 0 -- -- 84
2018-02-16 16:00:00 15.6 6 Sudeste 9 Sudeste 0 -- -- 75
2018-02-16 15:00:00 14.8 0 Calma 8 Sudeste 0 -- -- 79
2018-02-16 14:00:00 14.9 4 Sudeste 6 Sudeste 0 -- -- 80
2018-02-16 13:00:00 13.2 0 Calma 5 Sur 0 -- -- 86
2018-02-16 12:00:00 11.9 4 Sudeste 9 Sudoeste 0 -- -- 92
2018-02-16 11:00:00 10.5 3 Sudoeste 9 Sudeste 0 -- -- 95
2018-02-16 10:00:00 9.5 4 Sudeste 8 Sudeste 0 -- -- 99
2018-02-16 09:00:00 8.9 3 Sur 9 Sudeste 0 -- -- 99
2018-02-16 08:00:00 9.1 2 Sur 8 Sudoeste 0 -- -- 100
2018-02-16 07:00:00 9.1 3 Oeste 6 Sudoeste 0 -- -- 100
2018-02-16 06:00:00 8.8 4 Sur 9 Sudeste 0 -- -- 99
2018-02-16 05:00:00 9.2 6 Sudeste 8 Este 0 -- -- 99
2018-02-16 04:00:00 9.7 3 Sudeste 6 Oeste 0 -- -- 98
2018-02-16 03:00:00 10 4 Oeste 6 Sudoeste 0 -- -- 97
2018-02-16 02:00:00 10.1 5 Sudeste 13 Sudeste 0 -- -- 96
2018-02-16 01:00:00 10.4 9 Sudeste 12 Sudeste 0 -- -- 94
2018-02-16 00:00:00 10.9 7 Sudeste 15 Sudeste 0 -- -- 91
2018-02-15 23:00:00 10.7 6 Sudoeste 18 Sudeste 0 -- -- 94
2018-02-15 22:00:00 10.9 12 Sudeste 20 Sudeste 0.2 -- -- 92
2018-02-15 21:00:00 12 8 Sudoeste 28 Oeste 0.2 -- -- 83
2018-02-15 20:00:00 14.2 13 Oeste 17 Sudoeste 0 -- -- 69
2018-02-15 19:00:00 15.5 4 Oeste 15 Noroeste 0 -- -- 65
2018-02-15 18:00:00 17.3 3 Oeste 20 Oeste 0 -- -- 55
2018-02-15 17:00:00 18.3 9 Oeste 17 Sudoeste 0 -- -- 54
2018-02-15 16:00:00 16.8 2 Este 8 Oeste 0 -- -- 59
2018-02-15 15:00:00 17.4 3 Nordeste 9 Sudeste 0 -- -- 63
2018-02-15 14:00:00 17.5 4 Sudeste 16 Sudeste 0 -- -- 61
2018-02-15 13:00:00 18.6 8 Sudeste 17 Sudeste 0 -- -- 58
2018-02-15 12:00:00 17.5 6 Sudeste 11 Sudeste 0 -- -- 62
2018-02-15 11:00:00 13.4 6 Sudoeste 10 Sudoeste 0 -- -- 72
2018-02-15 10:00:00 12.6 3 Oeste 7 Sudoeste 0 -- -- 74
2018-02-15 09:00:00 10.2 2 Sudoeste 6 Sudoeste 0 -- -- 79
2018-02-15 08:00:00 10.5 5 Noroeste 10 Oeste 0 -- -- 77
2018-02-15 07:00:00 10 7 Oeste 10 Oeste 0 -- -- 80
2018-02-15 06:00:00 10.4 2 Sur 10 Noroeste 0 -- -- 79
2018-02-15 05:00:00 10.3 4 Oeste 12 Sudoeste 0 -- -- 80
2018-02-15 04:00:00 10 3 Sudeste 7 Noroeste 0 -- -- 83
2018-02-15 03:00:00 9.9 4 Este 9 Sur 0 -- -- 84
2018-02-15 02:00:00 9.9 2 Noroeste 9 Oeste 0 -- -- 86
2018-02-15 01:00:00 10.4 5 Sudeste 8 Sur 0 -- -- 85
2018-02-15 00:00:00 10.7 0 Calma 3 Nordeste 0 -- -- 81
2018-02-14 23:00:00 10.9 0 Calma 5 Sur 0 -- -- 84
2018-02-14 22:00:00 11.3 3 Oeste 10 Este 0 -- -- 83
2018-02-14 21:00:00 12.1 7 Sudeste 9 Sudeste 0 -- -- 77
2018-02-14 20:00:00 12.8 4 Sur 15 Sudeste 0 -- -- 75
2018-02-14 19:00:00 13.5 12 Sudeste 22 Sudeste 0 -- -- 73
2018-02-14 18:00:00 14.8 16 Sudeste 27 Sudeste 0 -- -- 68
2018-02-14 17:00:00 17.6 12 Sudeste 23 Sudeste 0 -- -- 55
2018-02-14 16:00:00 19 17 Noroeste 30 Noroeste 0 -- -- 52
2018-02-14 15:00:00 18.4 9 Noroeste 21 Noroeste 0 -- -- 55
2018-02-14 14:00:00 16.2 9 Nordeste 17 Norte 0 -- -- 62
2018-02-14 13:00:00 15.4 6 Nordeste 13 Noroeste 0 -- -- 69
2018-02-14 12:00:00 13.7 7 Nordeste 15 Noroeste 0 -- -- 72
2018-02-14 11:00:00 11 5 Norte 14 Este 0.4 -- -- 81
2018-02-14 10:00:00 9.4 3 Oeste 10 Nordeste 0 -- -- 84
2018-02-14 09:00:00 7 3 Sudoeste 11 Oeste 0 -- -- 97
2018-02-14 08:00:00 5.3 3 Oeste 17 Sudeste 0 -- -- 100
2018-02-14 07:00:00 4.9 8 Este 19 Este 0 -- -- 100
2018-02-14 06:00:00 4.6 3 Sur 10 Sudeste 0 -- -- 100
2018-02-14 05:00:00 4.4 3 Sudoeste 9 Sudeste 0 -- -- 100
2018-02-14 04:00:00 4.2 5 Sudeste 16 Sudeste 0 -- -- 100
2018-02-14 03:00:00 4.4 14 Sudeste 17 Sudeste 0 -- -- 100
2018-02-14 02:00:00 4.5 6 Sudeste 10 Sudeste 0 -- -- 100
2018-02-14 01:00:00 4.9 0 Calma 12 Sudeste 0.2 -- -- 100
2018-02-14 00:00:00 5.1 11 Sudeste 17 Sudeste 0.2 -- -- 100
2018-02-13 23:00:00 5.7 8 Sudeste 13 Sudeste 0.6 -- -- 95
2018-02-13 22:00:00 5.5 9 Nordeste 13 Nordeste 0.6 -- -- 96
2018-02-13 21:00:00 5.7 4 Oeste 26 Oeste 0.4 -- -- 97
2018-02-13 20:00:00 5.8 8 Norte 24 Noroeste 0 -- -- 94
2018-02-13 19:00:00 5.8 14 Noroeste 26 Noroeste 0 -- -- 95
2018-02-13 18:00:00 6 18 Noroeste 38 Noroeste 0 -- -- 94
2018-02-13 17:00:00 6.1 24 Noroeste 37 Noroeste 0.2 -- -- 95
2018-02-13 16:00:00 6.5 21 Noroeste 32 Noroeste 0 -- -- 92
2018-02-13 15:00:00 5.8 21 Norte 45 Oeste 0 -- -- 95
2018-02-13 14:00:00 5.9 21 Noroeste 43 Oeste 0 -- -- 97
2018-02-13 13:00:00 5.4 20 Noroeste 33 Noroeste 0.6 -- -- 98
2018-02-13 12:00:00 5.3 15 Noroeste 36 Norte 1 -- -- 97
2018-02-13 11:00:00 5.5 12 Norte 41 Oeste 1.6 -- -- 95
2018-02-13 10:00:00 7 35 Oeste 73 Oeste 0.6 -- -- 81
2018-02-13 09:00:00 9.5 38 Oeste 68 Oeste 0 -- -- 61
2018-02-13 08:00:00 4.5 11 Este 21 Este 0.2 -- -- 78
2018-02-13 07:00:00 1.6 13 Este 24 Este 0 -- -- 87
2018-02-13 06:00:00 1.1 8 Este 13 Nordeste 0 -- -- 82
2018-02-13 05:00:00 0 0 Calma 10 Sudoeste 0 -- -- 82
2018-02-13 04:00:00 -1.3 5 Este 12 Este 0 -- -- 97
2018-02-13 03:00:00 -1 5 Este 10 Este 0 -- -- 95
2018-02-13 02:00:00 -1 7 Sudeste 11 Sudeste 0 -- -- 99
2018-02-13 01:00:00 -0.6 3 Este 13 Sudeste 0 -- -- 98
2018-02-13 00:00:00 -0.3 8 Sudeste 20 Sudeste 0 -- -- 97
2018-02-12 23:00:00 -0.4 12 Sudeste 21 Sudeste 0 -- -- 100
2018-02-12 22:00:00 0.1 3 Sudeste 6 Sur 0 -- -- 100
2018-02-12 21:00:00 0.6 0 Calma 6 Oeste 0 -- -- 100
2018-02-12 20:00:00 0.6 0 Calma 12 Sudeste 0 -- -- 100
2018-02-12 19:00:00 1.1 4 Sudeste 27 Norte 0 -- -- 99
2018-02-12 18:00:00 2.2 16 Noroeste 32 Norte 0 -- -- 99
2018-02-12 17:00:00 3.3 0 Calma 5 Sudoeste 1.2 -- -- 100
2018-02-12 16:00:00 2.1 3 Sudoeste 5 Sudoeste 1.6 -- -- 100
2018-02-12 15:00:00 0.4 2 Norte 5 Noroeste 0.4 -- -- 100
2018-02-12 14:00:00 0.4 6 Sudoeste 19 Sudeste 0.8 -- -- 100
2018-02-12 13:00:00 3.4 12 Sudeste 17 Sudeste 0 -- -- 100
2018-02-12 12:00:00 2.9 3 Oeste 7 Norte 0 -- -- 100
2018-02-12 11:00:00 1.2 5 Norte 10 Norte 0.6 -- -- 100
2018-02-12 10:00:00 0.9 8 Oeste 17 Oeste 0.6 -- -- 100
2018-02-12 09:00:00 1.6 7 Oeste 28 Norte 0 -- -- 100
2018-02-12 08:00:00 1.6 2 Nordeste 9 Noroeste 0 -- -- 100
2018-02-12 07:00:00 1.8 2 Norte 12 Noroeste 0 -- -- 100
2018-02-12 06:00:00 1.9 10 Oeste 18 Oeste 0.2 -- -- 100
2018-02-12 05:00:00 2 5 Oeste 14 Noroeste 0 -- -- 100
2018-02-12 04:00:00 1.9 4 Norte 29 Noroeste 0.8 -- -- 100
2018-02-12 03:00:00 2.4 21 Norte 31 Norte 0.2 -- -- 100
2018-02-12 02:00:00 2.5 13 Noroeste 39 Oeste 0.8 -- -- 99
2018-02-12 01:00:00 3.3 16 Noroeste 38 Noroeste 0.6 -- -- 99
2018-02-12 00:00:00 3.3 27 Oeste 41 Oeste 1.8 -- -- 99
2018-02-11 23:00:00 3.7 14 Noroeste 47 Oeste 0.6 -- -- 96
2018-02-11 22:00:00 4.4 30 Oeste 45 Oeste 0.6 -- -- 98
2018-02-11 21:00:00 4.9 32 Oeste 46 Oeste 0.8 -- -- 98
2018-02-11 20:00:00 5.1 25 Oeste 42 Oeste 1 -- -- 100
2018-02-11 19:00:00 5.6 31 Oeste 44 Oeste 2.4 -- -- 100
2018-02-11 18:00:00 5.9 23 Noroeste 31 Oeste 2 -- -- 100
2018-02-11 17:00:00 6.4 18 Noroeste 45 Oeste 1.4 -- -- 100
2018-02-11 16:00:00 6.7 28 Oeste 44 Oeste 1.4 -- -- 100
2018-02-11 15:00:00 8 22 Norte 42 Oeste 2.2 -- -- 100
2018-02-11 14:00:00 9.1 21 Noroeste 34 Noroeste 0.4 -- -- 99
2018-02-11 13:00:00 9.9 7 Noroeste 19 Noroeste 1.2 -- -- 96
2018-02-11 12:00:00 10 16 Noroeste 32 Noroeste 0 -- -- 90
2018-02-11 11:00:00 11.6 13 Noroeste 22 Noroeste 0 -- -- 77
2018-02-11 10:00:00 11.4 15 Noroeste 36 Noroeste 0.2 -- -- 76
2018-02-11 09:00:00 10.1 15 Norte 27 Noroeste 0 -- -- 84
2018-02-11 08:00:00 9.7 12 Noroeste 21 Oeste 0 -- -- 91
2018-02-11 07:00:00 9 13 Noroeste 28 Noroeste 0 -- -- 99
2018-02-11 06:00:00 8.3 16 Norte 29 Noroeste 0 -- -- 100
2018-02-11 05:00:00 8 13 Norte 21 Norte 0 -- -- 100
2018-02-11 04:00:00 8.4 13 Norte 22 Norte 0 -- -- 100
2018-02-11 03:00:00 8.5 9 Norte 19 Norte 0 -- -- 100
2018-02-11 02:00:00 8 9 Norte 24 Noroeste 0 -- -- 100
2018-02-11 01:00:00 7.6 15 Norte 26 Norte 0 -- -- 100
2018-02-11 00:00:00 6.6 6 Noroeste 11 Noroeste 0.2 -- -- 99
2018-02-10 23:00:00 6.5 2 Noroeste 6 Nordeste 0.2 -- -- 89
2018-02-10 22:00:00 6.7 3 Sudoeste 9 Noroeste 0 -- -- 81
2018-02-10 21:00:00 6.6 6 Norte 17 Noroeste 0 -- -- 81
2018-02-10 20:00:00 6 6 Noroeste 22 Noroeste 0 -- -- 82
2018-02-10 19:00:00 5.8 8 Norte 22 Noroeste 0 -- -- 84
2018-02-10 18:00:00 6.4 16 Noroeste 24 Noroeste 0 -- -- 79
2018-02-10 17:00:00 6.3 8 Norte 31 Noroeste 0 -- -- 83
2018-02-10 16:00:00 7.6 14 Noroeste 24 Norte 0 -- -- 76
2018-02-10 15:00:00 8.2 7 Norte 17 Norte 0 -- -- 72
2018-02-10 14:00:00 7.1 10 Noroeste 20 Norte 0 -- -- 76
2018-02-10 13:00:00 6.7 5 Norte 12 Norte 0 -- -- 80
2018-02-10 12:00:00 5.4 3 Noroeste 15 Noroeste 0 -- -- 85
2018-02-10 11:00:00 4.1 9 Norte 15 Norte 0 -- -- 87
2018-02-10 10:00:00 3 8 Noroeste 17 Noroeste 0 -- -- 92
2018-02-10 09:00:00 2.3 5 Oeste 15 Noroeste 0 -- -- 94
2018-02-10 08:00:00 2.1 7 Oeste 17 Noroeste 0 -- -- 96
2018-02-10 07:00:00 2.2 7 Noroeste 13 Noroeste 0.2 -- -- 97
2018-02-10 06:00:00 2.3 10 Oeste 21 Oeste 0 -- -- 97
2018-02-10 05:00:00 2.2 10 Norte 15 Norte 0 -- -- 97
2018-02-10 04:00:00 2.4 5 Oeste 17 Norte 0 -- -- 99
2018-02-10 03:00:00 1.9 9 Noroeste 16 Noroeste 0 -- -- 100
2018-02-10 02:00:00 2 4 Noroeste 14 Noroeste 0.2 -- -- 100
2018-02-10 01:00:00 1.9 9 Noroeste 12 Noroeste 0 -- -- 100
2018-02-10 00:00:00 2.1 5 Norte 10 Norte 0 -- -- 100
2018-02-09 23:00:00 2 7 Noroeste 22 Oeste 1 -- -- 100
2018-02-09 22:00:00 2.6 7 Noroeste 14 Noroeste 0 -- -- 99
2018-02-09 21:00:00 2.4 8 Noroeste 15 Norte 0 -- -- 99
2018-02-09 20:00:00 3 7 Norte 37 Oeste 0.2 -- -- 96
2018-02-09 19:00:00 3.2 21 Oeste 39 Oeste 0.6 -- -- 97
2018-02-09 18:00:00 3.7 22 Oeste 39 Oeste 0.4 -- -- 95
2018-02-09 17:00:00 4.2 25 Oeste 47 Oeste 0.8 -- -- 98
2018-02-09 16:00:00 4.5 21 Oeste 50 Noroeste 2.2 -- -- 99
2018-02-09 15:00:00 4.7 29 Norte 51 Noroeste 3.2 -- -- 99
2018-02-09 14:00:00 5.9 22 Oeste 37 Oeste 0.8 -- -- 96
2018-02-09 13:00:00 5.9 21 Oeste 39 Oeste 0.6 -- -- 94
2018-02-09 12:00:00 5.4 16 Noroeste 45 Oeste 3.6 -- -- 100
2018-02-09 11:00:00 4.1 10 Noroeste 28 Oeste 3.2 -- -- 100
2018-02-09 10:00:00 4.1 14 Noroeste 26 Oeste 3 -- -- 100
2018-02-09 09:00:00 3.2 2 Sudoeste 10 Norte 0.6 -- -- 100
2018-02-09 08:00:00 1.5 3 Sudoeste 6 Oeste 0.4 -- -- 99
2018-02-09 07:00:00 1.6 -- -- -- -- 0.4 -- -- 94
2018-02-09 06:00:00 1.2 -- -- -- -- 0.2 -- -- 89
2018-02-09 05:00:00 2.2 -- -- -- -- 0 -- -- 74
2018-02-09 04:00:00 1.5 -- -- -- -- 0 -- -- 77
2018-02-09 03:00:00 1 -- -- -- -- 0 -- -- 80
2018-02-09 02:00:00 0.6 -- -- -- -- 0 -- -- 84
2018-02-09 01:00:00 0.4 -- -- -- -- -- -- -- 86
2018-02-09 00:00:00 0.8 -- -- -- -- -- -- -- 83
2018-02-08 23:00:00 1.1 -- -- -- -- -- -- -- 81
2018-02-08 22:00:00 1.5 -- -- -- -- -- -- -- 82
2018-02-08 21:00:00 1.8 -- -- -- -- -- -- -- 85
2018-02-08 20:00:00 2.7 -- -- -- -- -- -- -- 83
2018-02-08 19:00:00 3.4 -- -- -- -- -- -- -- 79
2018-02-08 18:00:00 4.6 -- -- -- -- -- -- -- 71
2018-02-08 17:00:00 5 -- -- -- -- -- -- -- 70
2018-02-08 16:00:00 5.3 -- -- -- -- -- -- -- 67
2018-02-08 15:00:00 6 -- -- -- -- -- -- -- 72
2018-02-08 14:00:00 5.6 -- -- -- -- -- -- -- 77
2018-02-08 13:00:00 4.3 -- -- -- -- -- -- -- 82
2018-02-08 12:00:00 2.9 -- -- -- -- -- -- -- 90
2018-02-08 11:00:00 1.4 -- -- -- -- -- -- -- 98
2018-02-08 10:00:00 0.3 -- -- -- -- -- -- -- 100
2018-02-08 09:00:00 -0.1 -- -- -- -- 0 -- -- 100
2018-02-08 08:00:00 -0.4 -- -- -- -- 0 -- -- 100
2018-02-08 07:00:00 -0.8 -- -- -- -- 0 -- -- 100
2018-02-08 06:00:00 -0.7 -- -- -- -- 0 -- -- 100
2018-02-08 05:00:00 -0.4 -- -- -- -- 0 -- -- 100
2018-02-08 04:00:00 -0.9 -- -- -- -- 0 -- -- 100
2018-02-08 03:00:00 -0.7 -- -- -- -- 0 -- -- 100
2018-02-08 02:00:00 -0.8 -- -- -- -- 0 -- -- 100
2018-02-08 01:00:00 -0.8 -- -- -- -- 0 -- -- 100
2018-02-08 00:00:00 -0.5 -- -- -- -- 0.2 -- -- 100
2018-02-07 23:00:00 -0.5 -- -- -- -- 0 -- -- 100
2018-02-07 22:00:00 -0.4 -- -- -- -- 0 -- -- 100
2018-02-07 21:00:00 -0.3 -- -- -- -- 0 -- -- 100
2018-02-07 20:00:00 -0.1 0 Calma 7 Nordeste 0.2 -- -- 100
2018-02-07 19:00:00 -0.1 5 Este 15 Sudoeste 0.2 -- -- 100
2018-02-07 18:00:00 0.1 12 Sudoeste 21 Sudoeste 0.2 -- -- 100
2018-02-07 17:00:00 0.5 3 Sudoeste 23 Norte 1.4 -- -- 97
2018-02-07 16:00:00 3.7 12 Norte 21 Norte 3.6 -- -- 82
2018-02-07 15:00:00 3.7 3 Norte 10 Norte 2.4 -- -- 80
2018-02-07 14:00:00 2.4 6 Oeste 26 Nordeste 1.8 -- -- 86
2018-02-07 13:00:00 2.9 12 Oeste 19 Noroeste 1.8 -- -- 81
2018-02-07 12:00:00 2.4 13 Sudoeste 18 Sudoeste 1.4 -- -- 89
2018-02-07 11:00:00 2.9 5 Noroeste 8 Sudoeste 1.8 -- -- 83
2018-02-07 10:00:00 2.4 6 Sudoeste 17 Sudoeste 1 -- -- 83
2018-02-07 09:00:00 2.1 3 Sur 27 Nordeste 0.8 -- -- 84
2018-02-07 08:00:00 2.2 10 Norte 22 Norte 0.8 -- -- 85
2018-02-07 07:00:00 2.2 4 Norte 19 Noroeste 0.6 -- -- 84
2018-02-07 06:00:00 1.7 11 Norte 28 Noroeste 0.2 -- -- 100
2018-02-07 05:00:00 0.2 0 Calma -- -- 0 -- -- 100
2018-02-07 04:00:00 0 0 Calma -- -- 0 -- -- 100
2018-02-07 03:00:00 0 0 Calma 6 Sudoeste 0 -- -- 100
2018-02-07 02:00:00 0.1 0 Calma 16 Oeste 0.2 -- -- 100
2018-02-07 01:00:00 0.1 8 Noroeste 20 Oeste 0 -- -- 100
2018-02-07 00:00:00 -0.2 14 Oeste 23 Norte 0 -- -- 100
2018-02-06 23:00:00 -0.2 12 Oeste 15 Oeste 0 -- -- 100
2018-02-06 22:00:00 -0.2 11 Noroeste 14 Noroeste 0 -- -- 100
2018-02-06 21:00:00 -0.1 3 Nordeste 5 Norte 0 -- -- 100
2018-02-06 20:00:00 0 3 Oeste 7 Oeste 0 -- -- 100
2018-02-06 19:00:00 0 3 Noroeste 14 Noroeste 0.2 -- -- 100
2018-02-06 18:00:00 0.5 9 Oeste 13 Oeste 0.6 -- -- 100
2018-02-06 17:00:00 1.1 7 Noroeste 10 Noroeste 1 -- -- 99
2018-02-06 16:00:00 1.5 6 Norte 14 Noroeste 1.8 -- -- 99
2018-02-06 15:00:00 1 10 Noroeste 20 Oeste 1.8 -- -- 99
2018-02-06 14:00:00 1.9 6 Norte 10 Norte 2.2 -- -- 99
2018-02-06 13:00:00 1.2 6 Norte 11 Norte 1 -- -- 100
2018-02-06 12:00:00 0.3 8 Oeste 12 Oeste 0.6 -- -- 100
2018-02-06 11:00:00 0.2 8 Noroeste 15 Sudoeste 0.6 -- -- 100
2018-02-06 10:00:00 0 2 Oeste 3 Sudoeste 0 -- -- 100
2018-02-06 09:00:00 -0.4 0 Calma 7 Noroeste 0.2 -- -- 100
2018-02-06 08:00:00 -- 9 Noroeste 23 Noroeste 0.2 -- -- --
2018-02-06 07:00:00 -0.2 8 Norte 24 Norte 0.2 -- -- 99
2018-02-06 06:00:00 0.4 9 Oeste 14 Oeste 0.2 -- -- 92
2018-02-06 05:00:00 0.7 4 Oeste 8 Sudoeste 0.2 -- -- 89
2018-02-06 04:00:00 0.5 3 Nordeste 10 Sudeste 0.4 -- -- 92
2018-02-06 03:00:00 1.1 8 Oeste 14 Oeste 0.4 -- -- 87
2018-02-06 02:00:00 1.4 10 Oeste 14 Oeste 0.6 -- -- 84
2018-02-06 01:00:00 1.8 5 Oeste 24 Norte 0.6 -- -- 80
2018-02-06 00:00:00 1.8 4 Noroeste 21 Norte 1 -- -- 83
2018-02-05 23:00:00 1.6 8 Oeste 15 Norte 1.6 -- -- 89
2018-02-05 22:00:00 1.5 7 Noroeste 19 Oeste 1.2 -- -- 96
2018-02-05 21:00:00 1 5 Nordeste 30 Nordeste 0.8 -- -- 100
2018-02-05 20:00:00 1 3 Norte 18 Este 0.4 -- -- 100
2018-02-05 19:00:00 0.5 3 Sur 10 Sudeste 0.4 -- -- 100
2018-02-05 18:00:00 0 0 Calma 9 Sudeste 0.4 -- -- 100
2018-02-05 17:00:00 0 0 Calma 0 Calma 0.4 -- -- 100
2018-02-05 16:00:00 0.3 0 Calma 0 Calma 1.2 -- -- 100
2018-02-05 15:00:00 0.1 0 Calma 8 Sudoeste 1.2 -- -- 100
2018-02-05 14:00:00 0.3 0 Calma 4 Oeste 1.4 -- -- 100
2018-02-05 13:00:00 0.1 7 Sudoeste 12 Oeste 0.8 -- -- 100
2018-02-05 12:00:00 0.2 6 Oeste 14 Sudoeste 1.6 -- -- 100
2018-02-05 11:00:00 0.3 4 Sudoeste 11 Sudoeste 1.4 -- -- 100
2018-02-05 10:00:00 0.1 8 Sudoeste 11 Sudoeste 0.8 -- -- 100
2018-02-05 09:00:00 0.1 0 Calma 2 Noroeste 1 -- -- 100
2018-02-05 08:00:00 -0.1 0 Calma 0 Calma 0.6 -- -- 100
2018-02-05 07:00:00 -0.1 0 Calma 3 Sudoeste 0.4 -- -- 100
2018-02-05 06:00:00 0 0 Calma -- -- 0.6 -- -- 100
2018-02-05 05:00:00 0.1 0 Calma 3 Sudoeste 1 -- -- 100
2018-02-05 04:00:00 0 0 Calma 4 Sudoeste 1 -- -- 100
2018-02-05 03:00:00 -0.1 0 Calma 5 Sudeste 0.8 -- -- 100
2018-02-05 02:00:00 -0.1 2 Sudoeste 9 Sudoeste 1.2 -- -- 100
2018-02-05 01:00:00 -0.1 4 Norte 9 Sudoeste 1 -- -- 100
2018-02-05 00:00:00 -0.1 6 Sudoeste 9 Oeste 0.8 -- -- 100
2018-02-04 23:00:00 -0.1 5 Sudoeste 10 Sudoeste 1.2 -- -- 100
2018-02-04 22:00:00 0 5 Este 9 Oeste 0.4 -- -- 100
2018-02-04 21:00:00 0.3 4 Norte 9 Nordeste 1.4 -- -- 100
2018-02-04 20:00:00 1.5 6 Noroeste 11 Norte 1.8 -- -- 100
2018-02-04 19:00:00 1.7 7 Noroeste 28 Noroeste 2 -- -- 100
2018-02-04 18:00:00 3.2 15 Noroeste 26 Oeste 0.2 -- -- 98
2018-02-04 17:00:00 4.4 15 Noroeste 23 Noroeste 0 -- -- 95
2018-02-04 16:00:00 5.4 11 Noroeste 18 Norte 0 -- -- 94
2018-02-04 15:00:00 5.2 2 Noroeste 11 Norte 0 -- -- 100
2018-02-04 14:00:00 4.7 5 Norte 11 Oeste 1 -- -- 100
2018-02-04 13:00:00 3 6 Noroeste 13 Noroeste 2.6 -- -- 100
2018-02-04 12:00:00 1.6 0 Calma 10 Noroeste 2.2 -- -- 100
2018-02-04 11:00:00 0.9 4 Norte 13 Noroeste 1.6 -- -- 100
2018-02-04 10:00:00 0.7 8 Noroeste 14 Noroeste 0.8 -- -- 100
2018-02-04 09:00:00 0.5 8 Oeste 13 Noroeste 0.4 -- -- 100
2018-02-04 08:00:00 0.3 3 Oeste 5 Sudoeste 0.2 -- -- 100
2018-02-04 07:00:00 0.1 0 Calma 9 Sudoeste 0.2 -- -- 100
2018-02-04 06:00:00 0 9 Sudoeste 13 Sudoeste 0.2 -- -- 100
2018-02-04 05:00:00 0.1 0 Calma 15 Noroeste 0.8 -- -- 100
2018-02-04 04:00:00 0.4 4 Nordeste 10 Norte 0.6 -- -- 100
2018-02-04 03:00:00 0.1 4 Noroeste 25 Noroeste 1 -- -- 100
2018-02-04 02:00:00 0.4 14 Noroeste 23 Noroeste 0.8 -- -- 100
2018-02-04 01:00:00 0.2 5 Nordeste 26 Noroeste 1.2 -- -- 100
2018-02-04 00:00:00 0.4 6 Noroeste 20 Noroeste 0.4 -- -- 100
2018-02-03 23:00:00 1.2 11 Noroeste 27 Norte 1.8 -- -- 100
2018-02-03 22:00:00 2.4 9 Noroeste 19 Noroeste 3 -- -- 99
2018-02-03 21:00:00 3.3 6 Norte 45 Oeste 2 -- -- 97
2018-02-03 20:00:00 3.5 27 Oeste 58 Oeste 3.6 -- -- 97
2018-02-03 19:00:00 4.1 33 Oeste 50 Oeste 3 -- -- 96
2018-02-03 18:00:00 5.3 37 Oeste 52 Oeste 0.8 -- -- 95
2018-02-03 17:00:00 5.6 37 Oeste 54 Oeste 1.2 -- -- 99
2018-02-03 16:00:00 6.3 47 Oeste 58 Oeste 1 -- -- 99
2018-02-03 15:00:00 6.7 37 Oeste 54 Oeste 1 -- -- 100
2018-02-03 14:00:00 6.1 27 Noroeste 36 Oeste 2 -- -- 100
2018-02-03 13:00:00 6.9 19 Noroeste 31 Noroeste 0.8 -- -- 96
2018-02-03 12:00:00 7.1 9 Noroeste 23 Norte 0 -- -- 90
2018-02-03 11:00:00 6.1 9 Norte 24 Norte 0 -- -- 92
2018-02-03 10:00:00 4.8 15 Noroeste 23 Noroeste 0 -- -- 94
2018-02-03 09:00:00 3.7 8 Norte 22 Noroeste 0 -- -- 97
2018-02-03 08:00:00 3.4 13 Noroeste 21 Noroeste 0.2 -- -- 96
2018-02-03 07:00:00 3.1 9 Noroeste 29 Noroeste 0.2 -- -- 98
2018-02-03 06:00:00 3 12 Noroeste 23 Noroeste 0 -- -- 96
2018-02-03 05:00:00 2.8 13 Norte 18 Norte 0 -- -- 96
2018-02-03 04:00:00 2.6 3 Norte 17 Norte 0 -- -- 99
2018-02-03 03:00:00 2 4 Norte 35 Oeste 0 -- -- 100
2018-02-03 02:00:00 1.7 13 Noroeste 21 Noroeste 0 -- -- 100
2018-02-03 01:00:00 1.3 0 Calma 12 Norte 0 -- -- 100
2018-02-03 00:00:00 1.4 8 Sur 15 Norte 0.2 -- -- 100
2018-02-02 23:00:00 1.1 4 Norte 26 Oeste 0.2 -- -- 100
2018-02-02 22:00:00 1.1 5 Noroeste 11 Noroeste 0 -- -- 100
2018-02-02 21:00:00 1.3 4 Sudeste 13 Norte 1 -- -- 100
2018-02-02 20:00:00 1.4 6 Norte 24 Noroeste 0 -- -- 100
2018-02-02 19:00:00 2 12 Noroeste 33 Noroeste 0 -- -- 97
2018-02-02 18:00:00 2.7 13 Oeste 33 Oeste 0.4 -- -- 98
2018-02-02 17:00:00 3 16 Oeste 30 Oeste 0.8 -- -- 100
2018-02-02 16:00:00 2.1 2 Nordeste 10 Sudeste 0.8 -- -- 100
2018-02-02 15:00:00 1.3 2 Nordeste 15 Nordeste 1.6 -- -- 100
2018-02-02 14:00:00 2 7 Noroeste 21 Oeste 0.2 -- -- 100
2018-02-02 13:00:00 1.2 17 Oeste 25 Noroeste 1.4 -- -- 100
2018-02-02 12:00:00 2.5 10 Noroeste 21 Noroeste 0.6 -- -- 99
2018-02-02 11:00:00 1.9 9 Noroeste 35 Oeste 1 -- -- 98
2018-02-02 10:00:00 1.3 25 Oeste 37 Oeste 1 -- -- 100
2018-02-02 09:00:00 1.2 8 Norte 22 Oeste 0.4 -- -- 100
2018-02-02 08:00:00 1.3 12 Noroeste 26 Oeste 0.4 -- -- 100
2018-02-02 07:00:00 1.5 10 Noroeste 21 Noroeste 0.4 -- -- 100
2018-02-02 06:00:00 1.2 13 Noroeste 33 Norte 1.2 -- -- 99
2018-02-02 05:00:00 1.4 14 Noroeste 30 Oeste 1.4 -- -- 99
2018-02-02 04:00:00 2.2 10 Oeste 22 Oeste 0.8 -- -- 93
2018-02-02 03:00:00 2.2 8 Noroeste 28 Sudoeste 0.4 -- -- 91
2018-02-02 02:00:00 2.8 8 Oeste 39 Norte 0.6 -- -- 94
2018-02-02 01:00:00 2.4 12 Noroeste 47 Noroeste 1.6 -- -- 95
2018-02-02 00:00:00 1.9 13 Noroeste 28 Norte 2.2 -- -- 99
2018-02-01 23:00:00 1.9 20 Oeste 39 Oeste 2.4 -- -- 98
2018-02-01 22:00:00 1.9 24 Oeste 42 Oeste 1.6 -- -- 96
2018-02-01 21:00:00 2.5 12 Noroeste 41 Oeste 0.6 -- -- 94
2018-02-01 20:00:00 2.2 8 Noroeste 34 Oeste 0 -- -- 97
2018-02-01 19:00:00 1.9 29 Oeste 54 Oeste 2.4 -- -- 98
2018-02-01 18:00:00 2.9 9 Norte 45 Oeste 1.2 -- -- 93
2018-02-01 17:00:00 -- 18 Oeste 47 Oeste 1.4 -- -- --
2018-02-01 16:00:00 3.9 11 Noroeste 39 Oeste 0.4 -- -- 91
2018-02-01 15:00:00 3.7 18 Oeste 39 Oeste 0.8 -- -- 93
2018-02-01 14:00:00 2.5 27 Oeste 44 Oeste 2.2 -- -- 98
2018-02-01 13:00:00 3.4 23 Oeste 49 Oeste 1.2 -- -- 96
2018-02-01 12:00:00 3.7 36 Oeste 55 Oeste 1.2 -- -- 97
2018-02-01 11:00:00 4.1 30 Oeste 55 Oeste 0.8 -- -- 98
2018-02-01 10:00:00 4.3 45 Oeste 64 Oeste 1.4 -- -- 98
2018-02-01 09:00:00 4.6 23 Oeste 47 Oeste 0.4 -- -- 99
2018-02-01 08:00:00 4.8 32 Oeste 48 Oeste 1 -- -- 97
2018-02-01 07:00:00 5.2 19 Noroeste 43 Oeste 0.4 -- -- 98
2018-02-01 06:00:00 5.6 32 Oeste 58 Oeste 1.2 -- -- 98
2018-02-01 05:00:00 6.1 26 Oeste 40 Oeste 1.4 -- -- 100
2018-02-01 04:00:00 6.5 26 Noroeste 37 Noroeste 1.6 -- -- 100
2018-02-01 03:00:00 6.8 18 Noroeste 28 Noroeste 1 -- -- 100
2018-02-01 02:00:00 7.1 14 Noroeste 26 Noroeste 0.4 -- -- 100
2018-02-01 01:00:00 7.2 15 Noroeste 39 Oeste 0.2 -- -- 100
2018-02-01 00:00:00 6.9 17 Noroeste 26 Noroeste 0.4 -- -- 100
2018-01-31 23:00:00 6.8 14 Noroeste 32 Noroeste 0 -- -- 98
2018-01-31 22:00:00 7.2 9 Noroeste 26 Noroeste 0 -- -- 95
2018-01-31 21:00:00 6.7 5 Oeste 18 Noroeste 0 -- -- 96
2018-01-31 20:00:00 6.7 8 Oeste 27 Noroeste 0 -- -- 96
2018-01-31 19:00:00 7 18 Noroeste 24 Noroeste 0 -- -- 94
2018-01-31 18:00:00 8.2 15 Oeste 22 Noroeste 0 -- -- 88
2018-01-31 17:00:00 10.8 15 Oeste 22 Noroeste 0 -- -- 75
2018-01-31 16:00:00 12.2 14 Oeste 21 Oeste 0 -- -- 66
2018-01-31 15:00:00 11.7 13 Noroeste 22 Oeste 0 -- -- 68
2018-01-31 14:00:00 11.2 3 Oeste 11 Sudoeste 0 -- -- 67
2018-01-31 13:00:00 8.8 3 Noroeste 12 Sudoeste 0 -- -- 88
2018-01-31 12:00:00 4.9 4 Oeste 7 Oeste 0 -- -- 100
2018-01-31 11:00:00 4.1 3 Este 9 Sudeste 0 -- -- 100
2018-01-31 10:00:00 3.6 4 Noroeste 25 Oeste 0 -- -- 100
2018-01-31 09:00:00 2.5 6 Oeste 13 Oeste 0 -- -- 100
2018-01-31 08:00:00 2.5 5 Sudeste 9 Este 0 -- -- 100
2018-01-31 07:00:00 2.5 7 Sudeste 12 Sudeste 0 -- -- 100
2018-01-31 06:00:00 2.9 3 Noroeste 21 Oeste 0 -- -- 100
2018-01-31 05:00:00 2 7 Oeste 13 Oeste 0 -- -- 100
2018-01-31 04:00:00 2.8 3 Oeste 5 Oeste 0 -- -- 100
2018-01-31 03:00:00 3.2 3 Sudeste 13 Este 0 -- -- 100
2018-01-31 02:00:00 3.4 0 Calma 12 Sudoeste 0 -- -- 100
2018-01-31 01:00:00 3.8 7 Oeste 10 Sudoeste 0 -- -- 100
2018-01-31 00:00:00 4.4 5 Oeste 9 Oeste 0 -- -- 100
2018-01-30 23:00:00 4.8 0 Calma 8 Este 0 -- -- 99
2018-01-30 22:00:00 5 4 Este 9 Este 0 -- -- 99
2018-01-30 21:00:00 5 6 Sudeste 12 Sudeste 0 -- -- 98
2018-01-30 20:00:00 4.8 5 Sudoeste 12 Oeste 0 -- -- 96
2018-01-30 19:00:00 6.1 10 Sudeste 16 Sudeste 0 -- -- 91
2018-01-30 18:00:00 7.9 6 Sudeste 9 Sudeste 0 -- -- 81
2018-01-30 17:00:00 10.3 6 Sur 12 Oeste 0 -- -- 73
2018-01-30 16:00:00 10.7 5 Sur 13 Oeste 0 -- -- 72
2018-01-30 15:00:00 9.5 5 Sudoeste 13 Oeste 0 -- -- 81
2018-01-30 14:00:00 7.8 2 Norte 8 Sudeste 0 -- -- 87
2018-01-30 13:00:00 7 4 Este 8 Este 0 -- -- 94
2018-01-30 12:00:00 6 2 Norte 12 Sur 0 -- -- 99
2018-01-30 11:00:00 4.3 6 Sur 12 Este 0 -- -- 100
2018-01-30 10:00:00 3.9 0 Calma 4 Sur 0 -- -- 100
2018-01-30 09:00:00 3.1 2 Oeste 5 Sudoeste 0 -- -- 100
2018-01-30 08:00:00 3.4 0 Calma 8 Sudoeste 0 -- -- 100
2018-01-30 07:00:00 3.1 5 Sudoeste 7 Sudoeste 0 -- -- 99
2018-01-30 06:00:00 3.5 0 Calma 3 Nordeste 0 -- -- 100
2018-01-30 05:00:00 3.6 2 Sudoeste 7 Sudeste 0 -- -- 99
2018-01-30 04:00:00 4.1 3 Sur 9 Sudeste 0 -- -- 100
2018-01-30 03:00:00 3.9 5 Este 8 Este 0 -- -- 96
2018-01-30 02:00:00 4.5 5 Sudeste 10 Sudeste 0 -- -- 94
2018-01-30 01:00:00 5.3 0 Calma 3 Sur 0 -- -- 85
2018-01-30 00:00:00 5.5 4 Sudoeste 11 Sudeste 0 -- -- 88
2018-01-29 23:00:00 5.6 6 Sudeste 14 Sudeste 0 -- -- 88
2018-01-29 22:00:00 6.3 5 Sudeste 9 Sudeste 0 -- -- 82
2018-01-29 21:00:00 6.7 6 Sudeste 11 Este 0 -- -- 89
2018-01-29 20:00:00 7.6 8 Sudeste 12 Sudeste 0 -- -- 87
2018-01-29 19:00:00 8.7 9 Sudeste 15 Sudeste 0 -- -- 86
2018-01-29 18:00:00 10 13 Sudeste 16 Sudeste 0 -- -- 80
2018-01-29 17:00:00 13.3 12 Sudeste 15 Sudeste 0 -- -- 59
2018-01-29 16:00:00 15.6 8 Oeste 14 Noroeste 0 -- -- 50
2018-01-29 15:00:00 14.5 9 Noroeste 21 Norte 0 -- -- 47
2018-01-29 14:00:00 15 8 Noroeste 16 Oeste 0 -- -- 47
2018-01-29 13:00:00 14.8 5 Sudoeste 8 Sudoeste 0 -- -- 48
2018-01-29 12:00:00 12.7 3 Sudoeste 5 Sudoeste 0 -- -- 52
2018-01-29 11:00:00 10 2 Sudoeste 5 Sudoeste 0 -- -- 54
2018-01-29 10:00:00 7.6 3 Nordeste 5 Este 0 -- -- 57
2018-01-29 09:00:00 6.9 0 Calma 5 Oeste 0 -- -- 58
2018-01-29 08:00:00 6.3 0 Calma 5 Nordeste 0 -- -- 61
2018-01-29 07:00:00 6.9 2 Sudoeste 4 Sudoeste 0 -- -- 59
2018-01-29 06:00:00 6.1 0 Calma 4 Oeste 0 -- -- 64
2018-01-29 05:00:00 5.2 0 Calma 7 Este 0 -- -- 69
2018-01-29 04:00:00 5.5 5 Este 7 Este 0 -- -- 70
2018-01-29 03:00:00 5.6 3 Oeste 5 Oeste 0 -- -- 70
2018-01-29 02:00:00 5.3 0 Calma -- -- 0 -- -- 74
2018-01-29 01:00:00 5.3 0 Calma 5 Sudoeste 0 -- -- 75
2018-01-29 00:00:00 5.1 0 Calma 2 Sudoeste 0 -- -- 79
2018-01-28 23:00:00 4.7 0 Calma 4 Este 0 -- -- 83
2018-01-28 22:00:00 4.6 0 Calma 9 Este 0 -- -- 84
2018-01-28 21:00:00 4.7 8 Sudeste 10 Sudeste 0 -- -- 87
2018-01-28 20:00:00 5.8 4 Sur 14 Sudeste 0 -- -- 82
2018-01-28 19:00:00 6.2 12 Sudeste 17 Sudeste 0 -- -- 81
2018-01-28 18:00:00 8.4 8 Sudeste 11 Sudeste 0 -- -- 62
2018-01-28 17:00:00 11.6 4 Sudeste 11 Sur 0 -- -- 51
2018-01-28 16:00:00 11.5 8 Sur 12 Sudeste 0 -- -- 52
2018-01-28 15:00:00 11.7 5 Sudeste 10 Sur 0 -- -- 54
2018-01-28 14:00:00 10.7 6 Sudeste 11 Sudeste 0 -- -- 63
2018-01-28 13:00:00 8.9 3 Sudoeste 13 Sudoeste 0 -- -- 70
2018-01-28 12:00:00 5.7 8 Sudoeste 10 Sudoeste 0 -- -- 100
2018-01-28 11:00:00 2.8 6 Sudeste 15 Sur 0 -- -- 100
2018-01-28 10:00:00 0.9 7 Sudeste 12 Sudeste 0 -- -- 100
2018-01-28 09:00:00 0.8 0 Calma 5 Este 0 -- -- 100
2018-01-28 08:00:00 0.9 3 Sudoeste 7 Oeste 0 -- -- 100
2018-01-28 07:00:00 1.3 3 Este 6 Este 0 -- -- 100
2018-01-28 06:00:00 1.7 2 Nordeste 6 Sudoeste 0 -- -- 100
2018-01-28 05:00:00 2.2 3 Nordeste 6 Sudoeste 0 -- -- 100
2018-01-28 04:00:00 2.9 2 Noroeste 7 Este 0.2 -- -- 100
2018-01-28 03:00:00 3.4 3 Sudoeste 5 Sudeste 0 -- -- 100
2018-01-28 02:00:00 4.3 0 Calma 6 Sudoeste 0 -- -- 100
2018-01-28 01:00:00 4.8 0 Calma 10 Oeste 0 -- -- 100
2018-01-28 00:00:00 5.1 3 Noroeste 5 Oeste 0 -- -- 100
2018-01-27 23:00:00 5.5 2 Oeste 6 Oeste 0 -- -- 100
2018-01-27 22:00:00 5.8 5 Oeste 9 Oeste 0 -- -- 100
2018-01-27 21:00:00 6.1 2 Noroeste 6 Sudoeste 0 -- -- 100
2018-01-27 20:00:00 6.3 3 Sudoeste 8 Oeste 0 -- -- 99
2018-01-27 19:00:00 6.8 5 Oeste 7 Sudoeste 0 -- -- 98
2018-01-27 18:00:00 7.2 0 Calma 7 Sudeste 0 -- -- 98
2018-01-27 17:00:00 7.7 0 Calma 8 Noroeste 0 -- -- 100
2018-01-27 16:00:00 7.5 3 Oeste 8 Noroeste 0 -- -- 100
2018-01-27 15:00:00 6.7 2 Oeste 7 Norte 0 -- -- 100
2018-01-27 14:00:00 6.3 4 Norte 7 Este 0.2 -- -- 100
2018-01-27 13:00:00 6.1 0 Calma 6 Sudoeste 0.2 -- -- 100
2018-01-27 12:00:00 5.7 0 Calma 9 Noroeste 0 -- -- 100
2018-01-27 11:00:00 5.4 2 Nordeste 13 Oeste 0.2 -- -- 100
2018-01-27 10:00:00 4.6 6 Oeste 9 Oeste 0.8 -- -- 100
2018-01-27 09:00:00 4.4 2 Oeste 11 Sudoeste 0.4 -- -- 100
2018-01-27 08:00:00 4.5 10 Noroeste 13 Noroeste 0.4 -- -- 99
2018-01-27 07:00:00 4.5 5 Noroeste 9 Noroeste 0 -- -- 100
2018-01-27 06:00:00 4.2 5 Noroeste 22 Oeste 0.2 -- -- 100
2018-01-27 05:00:00 4.4 12 Oeste 17 Oeste 0.8 -- -- 100
2018-01-27 04:00:00 4.5 5 Noroeste 17 Oeste 0 -- -- 100
2018-01-27 03:00:00 4.6 7 Noroeste 21 Oeste 1 -- -- 100
2018-01-27 02:00:00 4.6 7 Norte 17 Noroeste 0.4 -- -- 100
2018-01-27 01:00:00 4.7 9 Oeste 20 Oeste 0.6 -- -- 99
2018-01-27 00:00:00 4.5 5 Norte 20 Noroeste 1.2 -- -- 100
2018-01-26 23:00:00 4.6 4 Noroeste 26 Oeste 1 -- -- 99
2018-01-26 22:00:00 4.4 7 Norte 22 Norte 0.8 -- -- 100
2018-01-26 21:00:00 4.3 6 Norte 36 Oeste 0.8 -- -- 98
2018-01-26 20:00:00 4.7 9 Noroeste 25 Noroeste 1.8 -- -- 99
2018-01-26 19:00:00 5 12 Oeste 38 Oeste 0.8 -- -- 97
2018-01-26 18:00:00 5.4 16 Oeste 30 Norte 3.8 -- -- 96
2018-01-26 17:00:00 5.5 10 Norte 23 Noroeste 3.2 -- -- 95
2018-01-26 16:00:00 5.2 9 Oeste 22 Norte 0.2 -- -- 100
2018-01-26 15:00:00 3.4 8 Sudeste 25 Oeste 4.8 -- -- 98
2018-01-26 14:00:00 4.5 8 Norte 51 Oeste 3 -- -- 92
2018-01-26 13:00:00 5.2 39 Oeste 53 Oeste 1 -- -- 94
2018-01-26 12:00:00 5.2 39 Oeste 55 Oeste 0.8 -- -- 94
2018-01-26 11:00:00 4.3 9 Noroeste 26 Oeste 1.6 -- -- 99
2018-01-26 10:00:00 3.9 11 Noroeste 32 Oeste 1.6 -- -- 99
2018-01-26 09:00:00 3.4 8 Este 19 Este 1.6 -- -- 99
2018-01-26 08:00:00 3.7 7 Norte 31 Oeste 0.4 -- -- 98
2018-01-26 07:00:00 3.4 6 Nordeste 32 Noroeste 0.4 -- -- 98
2018-01-26 06:00:00 4 14 Norte 31 Oeste 0.2 -- -- 96
2018-01-26 05:00:00 3.6 5 Nordeste 22 Oeste 0.6 -- -- 98
2018-01-26 04:00:00 3.6 10 Norte 31 Noroeste 0.2 -- -- 97
2018-01-26 03:00:00 4 26 Oeste 44 Oeste 0.6 -- -- 95
2018-01-26 02:00:00 4.6 24 Noroeste 37 Noroeste 0 -- -- 90
2018-01-26 01:00:00 4.4 15 Noroeste 27 Noroeste 0 -- -- 89
2018-01-26 00:00:00 4.3 23 Noroeste 36 Noroeste 0 -- -- 93
2018-01-25 23:00:00 4.4 18 Noroeste 23 Noroeste 0 -- -- 94
2018-01-25 22:00:00 4.4 19 Oeste 44 Noroeste 0.6 -- -- 92
2018-01-25 21:00:00 4.7 17 Noroeste 22 Oeste 0 -- -- 88
2018-01-25 20:00:00 4.5 11 Noroeste 20 Oeste 0 -- -- 93
2018-01-25 19:00:00 4.9 17 Noroeste 44 Noroeste 0.4 -- -- 94
2018-01-25 18:00:00 5.4 12 Noroeste 25 Oeste 0 -- -- 95
2018-01-25 17:00:00 5.2 30 Oeste 59 Oeste 0.4 -- -- 90
2018-01-25 16:00:00 6.5 12 Noroeste 26 Noroeste 0.2 -- -- 95
2018-01-25 15:00:00 5.2 14 Oeste 36 Oeste 0.8 -- -- 94
2018-01-25 14:00:00 5.1 26 Oeste 53 Oeste 1.8 -- -- 95
2018-01-25 13:00:00 5.8 14 Noroeste 44 Oeste 1 -- -- 95
2018-01-25 12:00:00 5.8 16 Noroeste 51 Oeste 1.2 -- -- 95
2018-01-25 11:00:00 6.6 15 Noroeste 38 Oeste 0 -- -- 100
2018-01-25 10:00:00 6.5 33 Oeste 45 Oeste 1.8 -- -- 100
2018-01-25 09:00:00 7.6 13 Oeste 25 Noroeste 0.6 -- -- 100
2018-01-25 08:00:00 8 11 Oeste 17 Oeste 1 -- -- 100
2018-01-25 07:00:00 8.2 14 Oeste 18 Oeste 0 -- -- 100
2018-01-25 06:00:00 8.5 2 Sur 19 Oeste 0 -- -- 99
2018-01-25 05:00:00 8.4 12 Oeste 15 Oeste 0 -- -- 99
2018-01-25 04:00:00 8.5 5 Oeste 15 Este 0 -- -- 95
2018-01-25 03:00:00 8.6 10 Sudeste 20 Este 0 -- -- 93
2018-01-25 02:00:00 9.2 4 Sudoeste 17 Oeste 0 -- -- 96
2018-01-25 01:00:00 9.5 15 Oeste 21 Oeste 0 -- -- 90
2018-01-25 00:00:00 10.4 9 Oeste 25 Oeste 0 -- -- 82
2018-01-24 23:00:00 10.9 6 Oeste 15 Sudeste 0 -- -- 66
2018-01-24 22:00:00 10.1 4 Sudoeste 13 Sudeste 0 -- -- 69
2018-01-24 21:00:00 9.7 7 Este 17 Sudeste 0 -- -- 73
2018-01-24 20:00:00 10.3 15 Sudeste 22 Sudeste 0 -- -- 72
2018-01-24 19:00:00 10.8 5 Sudeste 9 Sudeste 0 -- -- 73
2018-01-24 18:00:00 12.3 3 Este 10 Sudeste 0 -- -- 66
2018-01-24 17:00:00 13.8 9 Sudeste 15 Sudeste 0 -- -- 60
2018-01-24 16:00:00 14.9 8 Sur 14 Sudeste 0 -- -- 61
2018-01-24 15:00:00 15 7 Sudeste 13 Sur 0 -- -- 62
2018-01-24 14:00:00 14.9 4 Sudeste 10 Sudeste 0 -- -- 64
2018-01-24 13:00:00 13.8 2 Sudoeste 10 Sur 0 -- -- 68
2018-01-24 12:00:00 11.6 3 Sur 10 Sudeste 0 -- -- 77
2018-01-24 11:00:00 8.8 10 Sudeste 18 Sudeste 0 -- -- 86
2018-01-24 10:00:00 7.2 3 Sudeste 5 Noroeste 0 -- -- 97
2018-01-24 09:00:00 6.5 3 Noroeste 10 Oeste 0 -- -- 96
2018-01-24 08:00:00 6.4 4 Sudoeste 6 Sudoeste 0 -- -- 97
2018-01-24 07:00:00 6.7 3 Noroeste 13 Noroeste 0 -- -- 96
2018-01-24 06:00:00 6.4 5 Oeste 12 Oeste 0 -- -- 96
2018-01-24 05:00:00 6.5 6 Oeste 10 Oeste 0 -- -- 95
2018-01-24 04:00:00 7.2 6 Noroeste 10 Noroeste 0 -- -- 94
2018-01-24 03:00:00 7.3 0 Calma 3 Sudoeste 0 -- -- 94
2018-01-24 02:00:00 7.8 0 Calma 10 Sur 0 -- -- 91
2018-01-24 01:00:00 8.3 6 Este 10 Sudeste 0 -- -- 89
2018-01-24 00:00:00 9.8 4 Sudeste 5 Este 0 -- -- 88
2018-01-23 23:00:00 10.2 2 Sur 8 Sudeste 0 -- -- 86
2018-01-23 22:00:00 10.4 5 Sudeste 8 Este 0 -- -- 86
2018-01-23 21:00:00 10.5 4 Sudeste 11 Este 0 -- -- 85
2018-01-23 20:00:00 10.7 5 Este 14 Sudeste 0 -- -- 84
2018-01-23 19:00:00 11 3 Sur 14 Sudeste 0 -- -- 83
2018-01-23 18:00:00 11.4 10 Este 22 Este 0 -- -- 82
2018-01-23 17:00:00 12.4 12 Este 22 Este 0 -- -- 80
2018-01-23 16:00:00 13.2 12 Este 21 Este 0 -- -- 77
2018-01-23 15:00:00 14 9 Este 18 Este 0 -- -- 74
2018-01-23 14:00:00 14.2 4 Sudeste 8 Sudeste 0 -- -- 74
2018-01-23 13:00:00 13.4 4 Sudeste 8 Este 0 -- -- 79
2018-01-23 12:00:00 11.8 0 Calma 4 Sudoeste 0 -- -- 84
2018-01-23 11:00:00 10.3 0 Calma 6 Sudeste 0 -- -- 87
2018-01-23 10:00:00 9.4 3 Sudoeste 6 Este 0 -- -- 90
2018-01-23 09:00:00 9.1 2 Sudeste 3 Sudeste 0 -- -- 88
2018-01-23 08:00:00 8.9 0 Calma 4 Este 0 -- -- 91
2018-01-23 07:00:00 9 5 Este 6 Este 0 -- -- 90
2018-01-23 06:00:00 9.4 0 Calma 9 Sudeste 0 -- -- 91
2018-01-23 05:00:00 9.6 6 Este 8 Este 0 -- -- 89
2018-01-23 04:00:00 9.9 0 Calma 4 Sudeste 0 -- -- 88
2018-01-23 03:00:00 10.1 3 Sudoeste 8 Sudeste 0 -- -- 88
2018-01-23 02:00:00 10.3 9 Sudeste 15 Sudeste 0 -- -- 87
2018-01-23 01:00:00 10.5 9 Sudeste 14 Sudeste 0 -- -- 91
2018-01-23 00:00:00 10.4 6 Sudeste 14 Sudeste 0 -- -- 91
2018-01-22 23:00:00 11.3 7 Sudeste 11 Sudeste 0 -- -- 88
2018-01-22 22:00:00 12.1 4 Sudoeste 12 Noroeste 0 -- -- 84
2018-01-22 21:00:00 12.7 6 Noroeste 20 Noroeste 0 -- -- 82
2018-01-22 20:00:00 12.7 7 Noroeste 15 Noroeste 0 -- -- 82
2018-01-22 19:00:00 13 8 Noroeste 23 Oeste 0 -- -- 82
2018-01-22 18:00:00 13.5 14 Oeste 30 Noroeste 0 -- -- 77
2018-01-22 17:00:00 14.5 19 Noroeste 29 Norte 0 -- -- 70
2018-01-22 16:00:00 15.3 16 Noroeste 26 Norte 0 -- -- 67
2018-01-22 15:00:00 14.9 14 Noroeste 26 Noroeste 0 -- -- 65
2018-01-22 14:00:00 15.4 13 Noroeste 23 Oeste 0 -- -- 67
2018-01-22 13:00:00 16.1 18 Noroeste 33 Noroeste -- -- -- 65
2018-01-22 12:00:00 11.3 9 Noroeste 17 Oeste 0 -- -- 93
2018-01-22 11:00:00 7.2 5 Sudoeste 9 Oeste 0 -- -- 100
2018-01-22 10:00:00 6.1 2 Este 12 Sudeste 0 -- -- 100
2018-01-22 09:00:00 6.3 3 Oeste 5 Oeste 0 -- -- 100
2018-01-22 08:00:00 6.6 2 Este 6 Este 0 -- -- 100
2018-01-22 07:00:00 7 2 Nordeste 8 Este 0 -- -- 100
2018-01-22 06:00:00 7.5 0 Calma 7 Este 0 -- -- 100
2018-01-22 05:00:00 7.9 4 Este 9 Este 0 -- -- 100
2018-01-22 04:00:00 8.2 0 Calma 3 Nordeste 0 -- -- 100
2018-01-22 03:00:00 8.3 0 Calma 9 Este 0 -- -- 100
2018-01-22 02:00:00 8.3 0 Calma 4 Sudoeste 0 -- -- 100
2018-01-22 01:00:00 8.8 2 Sur 10 Sudeste 0 -- -- 100
2018-01-22 00:00:00 8.9 9 Sudeste 13 Este 0 -- -- 98